Regionale Übersicht

METAR et TAF

Lundi 17 janvier 2022 à 17h45

Visibilités horizontales observées à différents aéroports. Les observations (METAR) et prévisions aéronautiques (TAF) complètes sont disponibles en cliquant sur l’icône correspondante.

  • Luxemburg (ELLX)

    Taf: TAF AMD ELLX 171100Z 1715/1818 26010KT 6000 BKN005 TEMPO 1718/1808 0300 FG VV001 BECMG 1808/1810 06008KT 9999 BKN012 BECMG 1816/1818 SCT012=

    Metar: METAR ELLX 171620Z 28010KT 5000 BR BKN005 BKN017 03/03 Q1035 NOSIG=

  • Spangdahlem (ETAD)

    Taf: TAF ETAD 171600Z 1716/1822 26007KT 9999 SCT004 BKN008 QNH3052INS TEMPO 1716/1719 BKN004 BECMG 1801/1802 VRB03KT 8000 BR BKN004 OVC010 QNH3058INS BECMG 1807/1808 06007KT 9999 NSW SCT005 BKN010 QNH3057INS BECMG 1817/1818 VRB03KT 5000 BR OVC003 QNH3055INS TX04/1814Z TN02/1802Z=

    Metar: METAR ETAD 171556Z AUTO 25008KT 9999 OVC007 03/03 A3051 RMK AO2 SLP340 T00310030 TSNO $=

  • Metz/Nancy (LFJL)

    Taf: TAF LFJL 171100Z 1712/1812 26007KT 9999 SCT005 BKN035 TEMPO 1712/1718 OVC005 BECMG 1718/1721 3000 BR OVC003 TEMPO 1721/1812 0700 FG VV/// PROB40 TEMPO 1723/1811 0300=

    Metar: METAR LFJL 171630Z AUTO 26005KT 8000 OVC007 04/03 Q1036 BECMG 3000 BR OVC003=

  • Saarbrücken/Intl (EDDR)

    Taf: TAF AMD EDDR 171526Z 1715/1812 26009KT 9999 OVC012 TEMPO 1715/1724 4000 -DZ OVC007 PROB30 TEMPO 1800/1803 0500 FG SCT012 BECMG 1808/1810 04009KT SCT012=

    Metar: METAR EDDR 171620Z 27009KT 9999 BKN007 03/02 Q1035 NOSIG=

  • Hahn (EDFH)

    Taf: TAF AMD EDFH 171541Z 1715/1812 27011KT 0400 FG OVC001 PROB30 TEMPO 1715/1810 1200 -DZ BR OVC003 BECMG 1722/1724 27006KT BECMG 1804/1806 04006KT BECMG 1810/1812 8000 OVC004=

    Metar: METAR EDFH 171620Z 29010KT 0300 R21/0600N -DZ FG VV/// 02/02 Q1033=

  • Ramstein (ETAR)

    Taf: TAF AMD ETAR 171150Z 1711/1816 25009KT 8000 BR OVC008 QNH3054INS BECMG 1714/1715 26009KT 9999 NSW FEW007 BKN010 620202 QNH3060INS BECMG 1721/1722 26009KT 3200 BR OVC008 620153 QNH3062INS BECMG 1804/1805 VRB04KT 1600 BR SCT008 QNH3061INS BECMG 1809/1810 04006KT 8000 BR SCT008 BKN015 QNH3060INS TX04/1713Z TN00/1807Z=

    Metar: METAR ETAR 171556Z AUTO 25007KT 9999 OVC012 04/04 A3055 RMK AO2 RAB03E13RAB17E26RAB40E52 SLP360 P0000 T00420042 $=

  • Nancy/Ochey (LFSO)

    Taf: TAF LFSO 171400Z 1715/1815 24005KT 8000 OVC006 BECMG 1715/1717 2000 BR BECMG 1717/1719 0600 FG VV/// BECMG 1807/1809 1500 BR OVC003 BECMG 1810/1812 6000 NSW BKN006=

    Metar: METAR LFSO 171630Z AUTO 25004KT 9999 OVC007 03/03 Q1037 BECMG 0600 FG VV///=

  • Liège Bierset (EBLG)

    Taf: TAF EBLG 171120Z 1712/1818 27007KT 4500 BR BKN006 PROB30 TEMPO 1712/1718 7000 NSW SCT008 BKN014 TEMPO 1718/1812 2500 BR BKN003 PROB40 TEMPO 1720/1810 0500 FG BKN001=

    Metar: METAR EBLG 171620Z 28006KT 8000 BKN012 05/04 Q1036 NOSIG=

  • Saint-Dizier (LFSI)

    Taf: TAF LFSI 171400Z 1715/1815 21005KT 8000 BKN005 BECMG 1716/1718 3000 BR BKN002 BECMG 1718/1720 0600 FG VV/// TEMPO 1803/1808 0200 FG BECMG 1809/1811 03010KT 8000 NSW BKN007=

    Metar: METAR LFSI 171630Z AUTO VRB01KT 2500 // OVC003 04/04 Q1038=

  • Maastricht/Zuid Limburg (EHBK)

    Taf: TAF EHBK 171121Z 1712/1818 26010KT 9999 BKN012 TEMPO 1712/1715 7000 BKN008 BECMG 1715/1718 BKN008 PROB30 TEMPO 1715/1721 4000 -DZ BKN004 BECMG 1720/1723 VRB02KT 4000 BR BKN004 PROB40 1802/1809 2000 BKN002 BECMG 1810/1813 08004KT 9999 NSW BKN020=

    Metar: METAR EHBK 171625Z AUTO 25005KT 220V290 9999 BKN016 BKN030 06/04 Q1036 NOSIG=

  • Köln/Köln-Bonn (EDDK)

    Taf: TAF EDDK 171100Z 1712/1818 30011KT 9999 BKN012 TEMPO 1712/1722 4500 -RADZ BKN007 BECMG 1801/1804 31003KT BKN008 PROB30 TEMPO 1805/1810 3500 BR BKN004 BECMG 1810/1812 SCT006 BKN015=

    Metar: METAR EDDK 171620Z 29011KT 7000 -RADZ BKN009 BKN013 06/05 Q1034 BECMG SCT009 BKN015=

  • Charleroi (EBCI)

    Taf: TAF EBCI 171120Z 1712/1818 27007KT 4500 BR BKN006 PROB30 TEMPO 1712/1718 7000 NSW SCT008 BKN014 TEMPO 1718/1812 2500 BR BKN003 PROB40 TEMPO 1720/1810 0500 FG BKN001=

    Metar: METAR EBCI 171620Z 25006KT 5000 BR BKN009 05/03 Q1037 NOSIG=

  • Wiesbaden (ETOU)

    Taf: TAF AMD ETOU 171248Z 1712/1811 30012KT 9999 BKN020 650303 QNH3048INS BECMG 1717/1718 32006KT 8000 BR BKN015 650302 QNH3050INS BECMG 1800/1801 34006KT 5000 BR SCT008 BKN010 610201 QNH3056INS TEMPO 1801/1807 3200 BR BECMG 1808/1809 02006KT 9000 BR SCT010 BKN020 QNH3058INS BECMG 1809/1810 08009KT 9999 NSW SCT020 BKN030 QNH3060INS TX06/1714Z TN02/1804Z LAST NO AMDS AFT 1713=

    Metar: METAR ETOU 171600Z NIL=

  • Karlsruhe/Baden-Baden (EDSB)

    Taf: TAF EDSB 171100Z 1712/1812 21010KT 8000 SCT010 BKN015 BECMG 1712/1715 BKN012 PROB30 TEMPO 1718/1804 2500 -DZ BKN008 BECMG 1718/1721 21005KT BECMG 1800/1803 03003KT BECMG 1809/1812 05008KT=

    Metar: METAR EDSB 171620Z 21006KT 8000 BKN012 BKN048 04/03 Q1036=

  • Chalons/Vatry (LFOK)

    Taf: TAF AMD LFOK 171215Z 1712/1812 22005KT 2000 BR BKN002 TEMPO 1713/1721 5000 BKN007 TEMPO 1721/1810 0500 FG VV/// BECMG 1810/1812 03010KT 6000 NSW OVC006=

    Metar: METAR LFOK 171630Z AUTO 35003KT 9999 OVC014 05/04 Q1038 TEMPO BKN007=

  • Frankfurt/Main (EDDF)

    Taf: TAF EDDF 171200Z NIL=

    Metar: METAR EDDF 171620Z 24007KT 9999 BKN016 06/03 Q1033 TEMPO OVC014=

  • Brüssel (EBBR)

    Taf: TAF EBBR 171120Z 1712/1818 27007KT 8000 SCT011 BKN040 TEMP0 1720/1810 4500 BR BKN004 PROB30 TEMPO 1723/1810 0500 FG BKN001=

    Metar: METAR EBBR 171620Z 29007KT 9999 BKN018 08/04 Q1037 TEMPO BKN014=

  • Düsseldorf (EDDL)

    Taf: TAF EDDL 171100Z 1712/1818 28011KT 9999 BKN010 TEMPO 1712/1721 4500 -RADZ BKN008 BECMG 1718/1721 31005KT BECMG 1723/1802 BKN007 TEMPO 1804/1812 4000 BR BKN004 BECMG 1812/1815 SCT007 BKN015=

    Metar: METAR EDDL 171620Z 28009KT 250V310 9000 -RA FEW009 SCT013 BKN016 08/06 Q1034 TEMPO BKN013=

  • Luxeuil (LFSX)

    Taf: TAF LFSX 171400Z 1715/1815 29005KT 4500 BR OVC009 BECMG 1720/1722 0300 FZFG VV/// BECMG 1809/1811 CAVOK=

    Metar: METAR LFSX 171630Z AUTO 33003KT 5000 BR BKN008 OVC040 01/00 Q1037=

  • Eindhoven (EHEH)

    Taf: TAF EHEH 171151Z 1712/1818 27007KT 9999 BKN040 TEMPO 1712/1715 SCT009 SCT015 BKN040 BECMG 1715/1718 BKN012 OVC020 TEMPO 1717/1724 SCT006 BKN010 BECMG 1723/1802 VRB02KT 4000 BR BKN005 OVC008 PROB40 TEMPO 1723/1808 6000 NSW BKN015 BECMG 1808/1811 21003KT 9999 NSW BKN020 PROB30 TEMPO 1808/1818 SCT012 BKN020=

    Metar: METAR EHEH 171625Z AUTO 29004KT 250V320 9999 FEW016 07/05 Q1036 BLU TEMPO SCT012 BKN015=

  • Niederrhein (EDLV)

    Taf: TAF AMD EDLV 171558Z 1715/1812 30005KT 9999 BKN015 TEMPO 1719/1724 BKN012 BECMG 1800/1803 BKN009 TEMPO 1803/1806 4000 -RADZ BKN004 PROB30 TEMPO 1803/1808 2000 BR=

    Metar: METAR EDLV 171620Z 31007KT 9999 BKN020 08/06 Q1035=

  • Dortmund/Wickede (EDLW)

    Taf: TAF EDLW 171100Z 1712/1812 25010KT 7000 BKN012 TEMPO 1712/1722 2500 -RADZ BKN008 BECMG 1717/1720 29004KT BECMG 1722/1724 BKN008 BECMG 1800/1803 4000 BR BKN004 TEMPO 1804/1812 2500 BR=

    Metar: METAR EDLW 171620Z 26006KT 230V300 4100 -DZ BR SCT006 BKN012 07/06 Q1033=

  • Stuttgart/Echterdingen (EDDS)

    Taf: TAF EDDS 171100Z 1712/1812 24010KT 9999 BKN040 BECMG 1718/1720 25005KT BKN012 PROB40 TEMPO 1719/1808 1500 DZ OVC006 BECMG 1803/1806 03005KT BECMG 1810/1812 SCT012=

    Metar: METAR EDDS 171620Z 23008KT 180V260 9999 FEW022 BKN041 04/00 Q1034 NOSIG=

  • Basel-Mühlhausen (LFSB)

    Taf: TAF LFSB 171100Z 1712/1812 28004KT 9999 SCT013 BKN030 BECMG 1718/1721 3000 BR BKN010 BECMG 1721/1724 2000 OVC004 PROB40 TEMPO 1719/1722 0800 FZFG OVC002 TEMPO 1722/1810 0300 FZFG VV/// TEMPO 1811/1812 4000 OVC005=

    Metar: METAR LFSB 171630Z 28003KT 9999 FEW015 OVC040 04/02 Q1036 NOSIG=

  • Lille (LFQQ)

    Taf: TAF LFQQ 171100Z 1712/1818 28005KT 9999 SCT010 BECMG 1716/1718 2000 BR BECMG 1718/1720 0800 FG VV/// TEMPO 1720/1808 0200 BECMG 1808/1811 3000 BR OVC008 PROB30 TEMPO 1811/1818 6000 NSW SCT008 BKN015=

    Metar: METAR LFQQ 171630Z AUTO 29004KT CAVOK 05/03 Q1037 BECMG 0800 FG VV///=

  • Paris/Charles de Gaulle (LFPG)

    Taf: TAF LFPG 171100Z 1712/1818 28005KT 6000 FEW008 BKN017 TX07/1714Z TN01/1724Z PROB30 TEMPO 1712/1714 BKN008 BECMG 1715/1718 BKN008 BECMG 1800/1803 BKN003 TEMPO 1801/1810 4000 BR PROB40 1803/1808 0400 FG VV/// BECMG 1810/1812 06015KT=

    Metar: METAR LFPG 171630Z VRB02KT 9999 SCT020 05/03 Q1038 NOSIG=

  • Paderborn/Lippstadt (EDLP)

    Taf: TAF EDLP 171100Z 1712/1812 28012KT 9999 BKN008 TEMPO 1712/1720 2000 RADZ BKN004 BECMG 1718/1721 28005KT BECMG 1720/1723 BKN004 TEMPO 1720/1806 2000 BR=

    Metar: METAR EDLP 171620Z 29009G19KT 250V330 9000 -RA OVC004 05/05 Q1030=

  • Paris/Le Bourget (LFPB)

    Taf: TAF LFPB 171200Z NIL=

    Metar: METAR LFPB 171630Z AUTO 35002KT 9999 BKN023 07/04 Q1038 BECMG BKN008=

  • Rotterdam (EHRD)

    Taf: TAF EHRD 171117Z 1712/1818 31012KT 9999 SCT025 BECMG 1715/1718 31005KT PROB40 TEMPO 1718/1803 6000 BKN012 BECMG 1721/1724 20004KT 4000 BR BKN005 PROB40 1800/1811 0600 FG BKN001 BECMG 1808/1811 24007KT 6000 NSW BKN012 BECMG 1811/1814 9999 SCT025=

    Metar: METAR EHRD 171625Z AUTO 32007KT 9999 FEW035 07/05 Q1036 NOSIG=

  • Zürich/Kloten (LSZH)

    Taf: TAF LSZH 171425Z 1715/1821 27006KT 9999 FEW022 SCT050 TX04/1715Z TNM00/1806Z TX04/1814Z BECMG 1715/1718 VRB02KT PROB30 TEMPO 1721/1801 -SN BKN012 BECMG 1802/1806 FEW004 SCT007 BKN012 PROB40 TEMPO 1804/1809 4000 BR OVC007 BECMG 1808/1811 05010KT TEMPO 1811/1818 BKN018 BECMG 1818/1821 VRB02KT PROB30 1819/1821 0800 BCFG BKN002=

    Metar: METAR LSZH 171620Z VRB03KT 9999 FEW025 BKN042 03/M00 Q1036 NOSIG=

  • Oostende/Intl (EBOS)

    Taf: TAF EBOS 171120Z 1712/1818 31009KT 9999 SCT018 BECMG 1722/1724 4500 BR BKN011 TEMPO 1722/1810 0500 FG FZFG BKN001 BECMG 1801/1803 18004KT BECMG 1811/1813 7000 NSW SCT012=

    Metar: METAR EBOS 171620Z 32006KT CAVOK 06/04 Q1038 NOSIG=

  • Paris/Orly (LFPO)

    Taf: TAF LFPO 171200Z NIL=

    Metar: METAR LFPO 171630Z 31005KT 9999 BKN023 07/04 Q1038 NOSIG=

  • Beauvais (LFOB)

    Taf: TAF AMD LFOB 171320Z 1713/1812 30005KT 9999 SCT012 SCT020 TEMPO 1713/1716 BKN015 BECMG 1716/1719 2000 BR BECMG 1719/1721 0600 FG VV/// PROB40 TEMPO 1719/1808 0200 BECMG 1810/1812 08010KT 8000 NSW BKN005=

    Metar: METAR LFOB 171630Z AUTO 36003KT CAVOK 05/03 Q1038 BECMG 2000 BR=

  • Münster/Intl (EDDG)

    Taf: TAF AMD EDDG 171453Z 1714/1812 31007KT 9999 BKN020 PROB30 TEMPO 1715/1719 BKN013 TEMPO 1719/1801 BKN009 BECMG 1801/1803 BKN007 BECMG 1805/1807 4000 BR BECMG 1806/1809 25004KT PROB40 TEMPO 1806/1810 2500 BR BKN004=

    Metar: METAR EDDG 171620Z 32014KT 280V350 9999 BKN020 08/05 Q1032 BECMG 31008KT=

  • Illesheim (ETIK)

    Taf: nil

    Metar: METAR ETIK 171556Z AUTO 25013KT 9999 OVC012 03/03 A3046 RMK AO2 SLP333 T00290028 $=

  • Duebendorf (LSMD)

    Taf: TAF LSMD 171625Z 1717/1823 26003KT 9999 FEW025 PROB30 TEMPO 1721/1801 -SN BKN012 BECMG 1802/1806 FEW004 SCT007 BKN012 PROB40 TEMPO 1804/1809 4000 BR OVC007 BECMG 1808/1811 07010KT TEMPO 1811/1818 BKN018 BECMG 1818/1821 VRB02KT PROB30 1819/1823 0800 BCFG BKN002=

    Metar: METAR LSMD 171620Z AUTO 34003KT 9999NDV SCT025 BKN029 OVC036 05/00 Q1036 RMK=

  • Villacoublay (LFPV)

    Taf: TAF LFPV 171400Z 1715/1815 32005KT 9999 OVC008 TX06/1715Z TN02/1803Z TEMPO 1717/1720 BKN014 BECMG 1722/1724 OVC004 TEMPO 1802/1807 3000 BR BECMG 1807/1808 BKN008=

    Metar: METAR LFPV 171630Z AUTO VRB02KT 9999 OVC021 06/04 Q1038 TEMPO BKN014=

  • Payerne (LSMP)

    Taf: TAF LSMP 171625Z 1717/1823 05005KT CAVOK BECMG 1718/1722 9999 BKN018 PROB30 TEMPO 1800/1808 4500 BR BKN012=

    Metar: METAR LSMP 171620Z AUTO VRB01KT 9999NDV NCD 04/M01 Q1035 RMK=

  • Amsterdam/Schipol (EHAM)

    Taf: TAF EHAM 171117Z 1712/1818 31014KT 9999 SCT025 BECMG 1715/1718 31005KT CAVOK PROB40 TEMPO 1721/1803 6000 BKN012 BECMG 1802/1805 20004KT 4000 BR BKN007 PROB40 1802/1811 0600 FG BKN001 BECMG 1809/1812 24008KT 6000 NSW BKN012 BECMG 1812/1815 9999 BKN025=

    Metar: METAR EHAM 171625Z 32011KT 9999 FEW015 BKN021 08/06 Q1035 TEMPO BKN018=

  • Emmen (LSME)

    Taf: TAF LSME 171625Z 1717/1823 VRB02KT 9999 SCT025 BECMG 1802/1806 4000 BR BKN006 BECMG 1806/1809 6000 BKN012 PROB30 1809/1816 06010KT TEMPO 1811/1818 9999 BKN016 BECMG 1819/1823 4000 BR BKN008=

    Metar: METAR LSME 171620Z AUTO 00000KT 9999NDV OVC028 04/02 Q1036 RMK=

  • Friedrichshafen (EDNY)

    Taf: TAF EDNY 171100Z 1712/1812 21005KT 9999 OVC025 BECMG 1718/1720 04004KT=

    Metar: METAR COR EDNY 171620Z 24005KT 9999 FEW038 BKN053 03/01 Q1035=

  • Alpnach (LSMA)

    Taf: TAF LSMA 171625Z 1717/1823 07006KT CAVOK BECMG 1717/1720 FEW020 SCT060 BECMG 1802/1806 4000 BR BKN006 BECMG 1806/1809 6000 BKN012 TEMPO 1811/1818 9999 BKN016 BECMG 1819/1823 4000 BR BKN008=

    Metar: METAR LSMA 171620Z AUTO VRB02KT 9999NDV NCD 02/M01 Q1035 RMK=

  • Meiringen (LSMM)

    Taf: TAF LSMM 171625Z 1717/1823 VRB02KT CAVOK BECMG 1717/1720 08010KT 9999 SCT020 BECMG 1722/1801 6000 PROB40 1801/1808 4000 BR PROB30 1802/1807 2500 BCFG BECMG 1808/1812 VRB02KT CAVOK BECMG 1819/1823 4000 BR BKN008=

    Metar: METAR LSMM 171620Z AUTO VRB01KT 9999NDV NCD M00/M00 Q1034 RMK=

  • Nürnberg (EDDN)

    Taf: TAF EDDN 171100Z 1712/1812 26015G25KT 9999 BKN015 BKN030 BECMG 1716/1719 28010KT BKN010 TEMPO 1718/1801 BKN007 BECMG 1723/1801 VRB03KT TEMPO 1801/1807 SCT010 BKN020 TEMPO 1807/1812 BKN007=

    Metar: METAR EDDN 171620Z 25015KT 9999 -RADZ BKN012 03/02 Q1030 TEMPO 4000 BKN008=

  • Rouen (LFOP)

    Taf: TAF AMD LFOP 171250Z 1712/1812 30005KT 9999 SCT012 TEMPO 1713/1716 BKN015 BECMG 1716/1718 3000 BR BECMG 1718/1720 0700 FG VV/// TEMPO 1720/1809 0200 BECMG 1809/1812 8000 NSW BKN008=

    Metar: METAR LFOP 171630Z AUTO 01003KT CAVOK 06/02 Q1037 BECMG 0700 FG VV///=

  • Evreux (LFOE)

    Taf: TAF LFOE 171400Z 1715/1815 29003KT 9999 FEW009 SCT013 BECMG 1719/1721 3000 BR BKN007 BECMG 1721/1723 0400 FG VV/// BECMG 1809/1811 6000 NSW SCT007 BKN015=

    Metar: METAR LFOE 171630Z AUTO VRB02KT 9999 FEW021 06/04 Q1038 NOSIG=

  • Erfurt/Bindersleben (EDDE)

    Taf: TAF EDDE 171100Z 1712/1812 27020G30KT 9999 FEW015 BKN025 PROB30 TEMPO 1715/1718 28025G35KT 4500 -SHRA BKN012TCU BECMG 1716/1720 29004KT=

    Metar: METAR EDDE 171620Z 32016KT 9999 -RA SCT008 BKN013 05/04 Q1027 TEMPO BKN008=